Katmai National Park, AK

3:37 PM AKST on December 18, 2014 (GMT -0900)
King Salmon | Change Station
CLOSE
Current Station
Airport
Location: King Salmon,
Elevation: 46 ft
Nearby Weather Stations

Elev 46 ft 58.68 °N, 156.66 °W | Updated 43 minutes ago

Overcast
Overcast
38 °F
Feels Like 33 °F
N
7
Wind Variable Wind from NE

Today
High -- | Low -- °F
--% Chance of Precip.
Yesterday
High -- | Low -- °F
Precip. -- in
10:15 AM 4:31 PM
Waning Crescent, 11% visible
Pressure 29.24 in
Visibility 10.0 miles
Clouds Scattered Clouds 4000 ft
Mostly Cloudy 10000 ft
Overcast 20000 ft
Windchill 33 °F
Dew Point 29 °F
Humidity 70%
Rainfall 0.00 in
Snow Depth Not available.
UV 0 out of 12
Pollen Not available.
Air Quality Not available.
Flu Activity Not available.
METAR PAKN 182354Z 04006KT 10SM SCT040 BKN100 OVC200 03/M02 A2924 RMK AO2 SLP902 T00331017 10033 21022 58018

More Conditions Fewer Conditions

Pressure 29.24 in
Visibility 10.0 miles
Clouds Scattered Clouds 4000 ft
Mostly Cloudy 10000 ft
Overcast 20000 ft
Windchill 33 °F
Dew Point 29 °F
Humidity 70%
Rainfall 0.00 in
Snow Depth Not available.
UV 0 out of 12
Pollen Not available.
Air Quality Not available.
Flu Activity Not available.
METAR PAKN 182354Z 04006KT 10SM SCT040 BKN100 OVC200 03/M02 A2924 RMK AO2 SLP902 T00331017 10033 21022 58018

More Conditions Fewer Conditions

10-Day Weather Forecast

Almanac

Astronomy

Dec. 18, 2014 Rise Set
Actual Time
Civil Twilight
Nautical Twilight
Astronomical Twilight
Moon
Length of Visible Light
Length of Day
Tomorrow will be .
, % of the Moon is Illuminated

Today's Extremes

State Highs State Lows

Community

WunderPhotos

Upload Photos

1,779,016 photos uploaded!

WunderBlogs® & News

Nearby

Air Quality

  Air Quality AQ Index Pollutant
Not available.

Snow Depth

Station Depth Elevation

Earthquake Activity

City Distance Mag. Time & Date
Minimum magnitude displayed is 2.5.

Coastal Water Temperatures

Place Temperature

Nearby Weather Stations